Flight Track Log - Related Links

Times and Time Zones

All times are in EDT time to prevent confusion due to time zone crossing. See the SWA419 flight status page for this flight to view local times or setup timezone preferences in your user account.

Time Position Orientation Groundspeed Altitude Reporting Facility
EDT Latitude Longitude Course Direction KTS MPH feet Rate Location/Type
Mon 02:23:18 PM 39.1706 -76.7481 290° West 237 273 4,200  Level Washington Center
Mon 02:24:19 PM 39.1947 -76.8342 290° West 278 320 6,700 3,710 Climbing Washington Center
Mon 02:25:29 PM 39.2167 -76.9500 284° West 286 329 12,300 3,462 Climbing Potomac TRACON
Mon 02:26:29 PM 39.2167 -77.0667 270° West 342 394 14,200 2,365 Climbing Potomac TRACON
Mon 02:28:19 PM 39.1189 -77.2397 234° Southwest 382 440 19,000 2,734 Climbing Washington Center
Mon 02:29:18 PM 39.0325 -77.3097 212° Southwest 389 448 21,900 2,118 Climbing Washington Center
Mon 02:30:18 PM 38.9850 -77.4208 241° Southwest 360 414 23,200 1,900 Climbing Washington Center
Mon 02:31:18 PM 38.9642 -77.5564 259° West 365 420 25,700 2,350 Climbing Washington Center
Mon 02:32:18 PM 38.9386 -77.7053 258° West 381 438 27,900 2,000 Climbing Washington Center
Mon 02:33:18 PM 38.9175 -77.8300 258° West 394 453 29,700 1,884 Climbing Washington Center
Mon 02:34:19 PM 38.8917 -77.9814 258° West 394 453 31,700 1,700 Climbing Washington Center
Mon 02:35:18 PM 38.8681 -78.1167 257° West 394 453 33,100 1,815 Climbing Washington Center
Mon 02:36:18 PM 38.8528 -78.2519 262° West 394 453 35,300 2,132 Climbing Washington Center
Mon 02:37:19 PM 38.8517 -78.3878 269° West 388 447 37,400 1,350 Climbing Washington Center
Mon 02:38:18 PM 38.8508 -78.5183 270° West 378 435 38,000 303 Climbing Washington Center
Mon 02:39:18 PM 38.8494 -78.6517 269° West 378 435 38,000  Level Washington Center
Mon 02:40:18 PM 38.8481 -78.7875 269° West 385 443 38,000  Level Washington Center
Mon 02:41:19 PM 38.8444 -78.9233 268° West 385 443 38,000  Level Washington Center
Mon 02:42:18 PM 38.8447 -79.0594 270° West 385 443 38,000  Level Washington Center
Mon 02:43:19 PM 38.8406 -79.1950 268° West 385 443 38,000  Level Washington Center
Mon 02:44:18 PM 38.8200 -79.3272 259° West 385 443 38,000  Level Washington Center
Mon 02:45:18 PM 38.7969 -79.4594 257° West 385 443 38,000  Level Washington Center
Mon 02:46:19 PM 38.7717 -79.5939 256° West 391 450 38,000  Level Washington Center
Mon 02:47:18 PM 38.7506 -79.7258 258° West 391 450 38,000  Level Washington Center
Mon 02:48:19 PM 38.7253 -79.8522 256° West 386 444 38,000  Level Washington Center
Mon 02:50:43 PM 38.6669 -80.1447 256° West 375 432 38,000  Level Indianapolis Center
Mon 02:51:45 PM 38.6431 -80.2747 257° West 375 432 38,000  Level Indianapolis Center
Mon 02:52:47 PM 38.6183 -80.4044 256° West 375 432 38,000  Level Indianapolis Center
Mon 02:53:49 PM 38.5881 -80.5592 256° West 373 429 38,000  Level Indianapolis Center
Mon 02:54:50 PM 38.5644 -80.6889 257° West 375 432 38,000  Level Indianapolis Center
Mon 02:55:52 PM 38.5394 -80.8181 256° West 374 430 38,000  Level Indianapolis Center
Mon 02:56:54 PM 38.5139 -80.9481 256° West 376 433 38,000  Level Indianapolis Center
Mon 02:57:56 PM 38.4881 -81.0778 256° West 375 432 38,000  Level Indianapolis Center
Mon 02:58:58 PM 38.4617 -81.2100 256° West 380 437 38,000  Level Indianapolis Center
Mon 02:59:59 PM 38.4356 -81.3422 256° West 381 438 38,000  Level Indianapolis Center
Mon 03:01:01 PM 38.4092 -81.4758 256° West 383 441 38,000  Level Indianapolis Center
Mon 03:02:03 PM 38.3831 -81.6103 256° West 386 444 38,000  Level Indianapolis Center
Mon 03:03:05 PM 38.3558 -81.7431 255° West 384 442 38,000  Level Indianapolis Center
Mon 03:04:06 PM 38.3147 -81.8967 251° West 380 437 38,000  Level Indianapolis Center
Mon 03:05:08 PM 38.2783 -82.0236 250° West 380 437 38,000  Level Indianapolis Center
Mon 03:06:10 PM 38.2431 -82.1514 251° West 380 437 38,000  Level Indianapolis Center
Mon 03:07:12 PM 38.2081 -82.2778 251° West 380 437 38,000  Level Indianapolis Center
Mon 03:08:13 PM 38.1711 -82.4033 250° West 379 436 38,000  Level Indianapolis Center
Mon 03:09:15 PM 38.1325 -82.5403 250° West 380 437 38,000  Level Indianapolis Center
Mon 03:10:17 PM 38.0964 -82.6658 250° West 379 436 38,000  Level Indianapolis Center
Mon 03:11:19 PM 38.0597 -82.7911 250° West 380 437 38,000  Level Indianapolis Center
Mon 03:12:21 PM 38.0236 -82.9181 250° West 382 440 38,000  Level Indianapolis Center
Mon 03:13:22 PM 37.9803 -83.0628 249° West 378 435 38,000  Level Indianapolis Center
Mon 03:14:24 PM 37.9431 -83.1908 250° West 386 444 38,000  Level Indianapolis Center
Mon 03:15:26 PM 37.9053 -83.3189 250° West 389 448 38,000  Level Indianapolis Center
Mon 03:16:28 PM 37.8678 -83.4464 250° West 388 447 38,000  Level Indianapolis Center
Mon 03:17:29 PM 37.8294 -83.5756 249° West 392 451 38,000  Level Indianapolis Center
Mon 03:18:31 PM 37.7911 -83.7039 249° West 391 450 38,000  Level Indianapolis Center
Mon 03:19:33 PM 37.7464 -83.8539 249° West 392 451 38,000  Level Indianapolis Center
Mon 03:20:35 PM 37.7069 -83.9828 249° West 393 452 38,000  Level Indianapolis Center
Mon 03:21:36 PM 37.6678 -84.1100 249° West 391 450 38,000  Level Indianapolis Center
Mon 03:22:38 PM 37.6289 -84.2406 249° West 395 455 38,000  Level Indianapolis Center
Mon 03:23:40 PM 37.5886 -84.3683 248° West 393 452 38,000  Level Indianapolis Center
Mon 03:24:42 PM 37.5500 -84.4961 249° West 392 451 38,000  Level Indianapolis Center
Mon 03:25:44 PM 37.5025 -84.6461 248° West 395 455 38,000  Level Indianapolis Center
Mon 03:26:45 PM 37.4628 -84.7739 249° West 393 452 38,000  Level Indianapolis Center
Mon 03:27:47 PM 37.4231 -84.9025 249° West 394 453 38,000  Level Indianapolis Center
Mon 03:28:49 PM 37.3825 -85.0311 248° West 396 456 38,000  Level Indianapolis Center
Mon 03:29:51 PM 37.3425 -85.1592 249° West 396 456 38,000  Level Indianapolis Center
Mon 03:30:53 PM 37.3017 -85.2889 248° West 399 459 38,000  Level Indianapolis Center
Mon 03:31:54 PM 37.2531 -85.4406 248° West 402 463 38,000  Level Indianapolis Center
Mon 03:32:56 PM 37.2136 -85.5681 249° West 401 461 38,000  Level Indianapolis Center
Mon 03:33:58 PM 37.1697 -85.7053 248° West 402 463 38,000  Level Memphis Center
Mon 03:34:58 PM 37.1286 -85.8350 248° West 402 463 38,000  Level Memphis Center
Mon 03:35:58 PM 37.0853 -85.9650 247° West 402 463 38,000  Level Memphis Center
Mon 03:36:58 PM 37.0461 -86.0944 249° West 402 463 38,000  Level Memphis Center
Mon 03:37:58 PM 37.0006 -86.2242 246° West 407 468 38,000  Level Memphis Center
Mon 03:38:58 PM 36.9589 -86.3536 248° West 407 468 38,000  Level Memphis Center
Mon 03:39:58 PM 36.9108 -86.4806 245° Southwest 402 463 38,000  Level Memphis Center
Mon 03:40:58 PM 36.8478 -86.6003 237° Southwest 415 478 38,000  Level Memphis Center
Mon 03:41:58 PM 36.7869 -86.7247 239° Southwest 425 489 38,000  Level Memphis Center
Mon 03:42:58 PM 36.7294 -86.8311 236° Southwest 425 489 38,000  Level Memphis Center
Mon 03:43:58 PM 36.6664 -86.9528 237° Southwest 420 483 38,000  Level Memphis Center
Mon 03:44:58 PM 36.6050 -87.0742 238° Southwest 420 483 38,000  Level Memphis Center
Mon 03:45:58 PM 36.5414 -87.1931 236° Southwest 420 483 38,000  Level Memphis Center
Mon 03:46:58 PM 36.4778 -87.3142 237° Southwest 420 483 38,000  Level Memphis Center
Mon 03:47:58 PM 36.4158 -87.4325 237° Southwest 420 483 38,000  Level Memphis Center
Mon 03:48:58 PM 36.3539 -87.5508 237° Southwest 420 483 38,000  Level Memphis Center
Mon 03:49:58 PM 36.2900 -87.6714 237° Southwest 420 483 38,000  Level Memphis Center
Mon 03:50:58 PM 36.2297 -87.7842 236° Southwest 413 475 38,000  Level Memphis Center
Mon 03:51:58 PM 36.1656 -87.9017 236° Southwest 413 475 38,000  Level Memphis Center
Mon 03:52:58 PM 36.1031 -88.0167 236° Southwest 407 468 38,000  Level Memphis Center
Mon 03:53:58 PM 36.0367 -88.1417 237° Southwest 407 468 38,000  Level Memphis Center
Mon 03:54:58 PM 35.9739 -88.2564 236° Southwest 402 463 38,000  Level Memphis Center
Mon 03:55:58 PM 35.9111 -88.3708 236° Southwest 407 468 38,000  Level Memphis Center
Mon 03:56:58 PM 35.8544 -88.4744 236° Southwest 407 468 38,000  Level Memphis Center
Mon 03:57:58 PM 35.7894 -88.5911 236° Southwest 407 468 38,000  Level Memphis Center
Mon 03:58:58 PM 35.7242 -88.7050 235° Southwest 407 468 38,000  Level Memphis Center
Mon 03:59:58 PM 35.6633 -88.8289 239° Southwest 402 463 38,000  Level Memphis Center
Mon 04:00:58 PM 35.5978 -88.9425 235° Southwest 402 463 38,000  Level Memphis Center
Mon 04:01:58 PM 35.5367 -89.0583 237° Southwest 407 468 38,000  Level Memphis Center
Mon 04:02:58 PM 35.4711 -89.1742 235° Southwest 407 468 38,000  Level Memphis Center
Mon 04:03:58 PM 35.4094 -89.2844 236° Southwest 407 468 38,000  Level Memphis Center
Mon 04:04:58 PM 35.3458 -89.4000 236° Southwest 407 468 38,000  Level Memphis Center
Mon 04:05:58 PM 35.2839 -89.5125 236° Southwest 407 468 38,000  Level Memphis Center
Mon 04:06:58 PM 35.2200 -89.6275 236° Southwest 407 468 38,000  Level Memphis Center
Mon 04:07:58 PM 35.1622 -89.7272 235° Southwest 407 468 38,000  Level Memphis Center
Mon 04:08:58 PM 35.1000 -89.8419 236° Southwest 407 468 38,000  Level Memphis Center
Mon 04:09:58 PM 35.0358 -89.9564 236° Southwest 407 468 38,000  Level Memphis Center
Mon 04:10:58 PM 34.9592 -90.0783 233° Southwest 412 474 38,000  Level Memphis Center
Mon 04:11:58 PM 34.8986 -90.1772 233° Southwest 406 467 38,000  Level Memphis Center
Mon 04:12:58 PM 34.8278 -90.2836 231° Southwest 406 467 38,000  Level Memphis Center
Mon 04:13:58 PM 34.7611 -90.3900 233° Southwest 411 473 38,000  Level Memphis Center
Mon 04:14:58 PM 34.6964 -90.4986 234° Southwest 411 473 38,000  Level Memphis Center
Mon 04:15:58 PM 34.6294 -90.6044 232° Southwest 406 467 38,000  Level Memphis Center
Mon 04:16:58 PM 34.5667 -90.7128 235° Southwest 399 459 38,000  Level Memphis Center
Mon 04:17:58 PM 34.5017 -90.8158 233° Southwest 399 459 38,000  Level Memphis Center
Mon 04:18:58 PM 34.4364 -90.9186 232° Southwest 394 453 38,000  Level Memphis Center
Mon 04:19:58 PM 34.3650 -91.0339 233° Southwest 388 447 38,000  Level Memphis Center
Mon 04:20:58 PM 34.2956 -91.1392 231° Southwest 395 455 38,000  Level Memphis Center
Mon 04:21:58 PM 34.2300 -91.2439 233° Southwest 395 455 38,000  Level Memphis Center
Mon 04:22:58 PM 34.1625 -91.3486 232° Southwest 395 455 38,000  Level Memphis Center
Mon 04:23:58 PM 34.0950 -91.4558 233° Southwest 394 453 38,000  Level Memphis Center
Mon 04:24:58 PM 34.0250 -91.5603 231° Southwest 399 459 38,000  Level Memphis Center
Mon 04:25:58 PM 33.9614 -91.6694 235° Southwest 404 465 38,000  Level Memphis Center
Mon 04:26:58 PM 33.8997 -91.7686 233° Southwest 398 458 38,000  Level Memphis Center
Mon 04:27:58 PM 33.8275 -91.8725 230° Southwest 398 458 38,000  Level Memphis Center
Mon 04:30:07 PM 33.6950 -92.0811 233° Southwest 387 445 38,000  Level Fort Worth Center
Mon 04:31:07 PM 33.6283 -92.1850 232° Southwest 387 445 38,000  Level Fort Worth Center
Mon 04:32:07 PM 33.5617 -92.2861 232° Southwest 387 445 38,000  Level Fort Worth Center
Mon 04:33:07 PM 33.4928 -92.3897 231° Southwest 387 445 38,000  Level Fort Worth Center
Mon 04:34:07 PM 33.4278 -92.4906 232° Southwest 392 451 38,000  Level Fort Worth Center
Mon 04:35:07 PM 33.3567 -92.5939 231° Southwest 392 451 38,000  Level Fort Worth Center
Mon 04:36:07 PM 33.2856 -92.6997 231° Southwest 392 451 38,000  Level Fort Worth Center
Mon 04:37:07 PM 33.2078 -92.7933 225° Southwest 397 457 38,000  Level Fort Worth Center
Mon 04:38:07 PM 33.1169 -92.8797 219° Southwest 409 471 38,000  Level Fort Worth Center
Mon 04:39:07 PM 33.0261 -92.9661 219° Southwest 415 478 38,000  Level Fort Worth Center
Mon 04:40:07 PM 32.9353 -93.0522 219° Southwest 420 483 38,000  Level Fort Worth Center
Mon 04:41:07 PM 32.8442 -93.1383 218° Southwest 420 483 38,000  Level Fort Worth Center
Mon 04:42:07 PM 32.7533 -93.2267 219° Southwest 425 489 38,000  Level Fort Worth Center
Mon 04:43:07 PM 32.6642 -93.3122 219° Southwest 425 489 38,000  Level Fort Worth Center
Mon 04:44:07 PM 32.5711 -93.4003 219° Southwest 425 489 38,000  Level Fort Worth Center
Mon 04:45:07 PM 32.4778 -93.4856 218° Southwest 431 496 38,000  Level Fort Worth Center
Mon 04:46:07 PM 32.3844 -93.5733 218° Southwest 431 496 38,000  Level Fort Worth Center
Mon 04:47:07 PM 32.2953 -93.6631 220° Southwest 431 496 38,000  Level Fort Worth Center
Mon 04:48:07 PM 32.2039 -93.7431 217° Southwest 431 496 38,000  Level Fort Worth Center
Mon 04:49:07 PM 32.1186 -93.8347 222° Southwest 431 496 38,000  Level Fort Worth Center
Mon 04:50:07 PM 32.0292 -93.9192 219° Southwest 425 489 38,000  Level Fort Worth Center
Mon 04:51:40 PM 31.8797 -94.0550 218° Southwest 410 472 38,000  Level Houston Center
Mon 04:52:43 PM 31.7911 -94.1367 218° Southwest 405 466 38,000  Level Houston Center
Mon 04:53:45 PM 31.7108 -94.2133 219° Southwest 406 467 38,000  Level Houston Center
Mon 04:54:47 PM 31.6031 -94.3125 218° Southwest 408 470 38,000  Level Houston Center
Mon 04:55:49 PM 31.5133 -94.3953 218° Southwest 409 471 38,000  Level Houston Center
Mon 04:56:51 PM 31.4231 -94.4781 218° Southwest 409 471 38,000  Level Houston Center
Mon 04:57:53 PM 31.3339 -94.5592 218° Southwest 407 468 38,000  Level Houston Center
Mon 04:58:55 PM 31.2456 -94.6414 219° Southwest 411 473 38,000  Level Houston Center
Mon 04:59:58 PM 31.1561 -94.7233 218° Southwest 411 473 38,000  Level Houston Center
Mon 05:01:00 PM 31.0667 -94.8200 223° Southwest 402 463 38,000  Level Houston Center
Mon 05:02:02 PM 30.9842 -94.9086 223° Southwest 401 461 38,000  Level Houston Center
Mon 05:03:04 PM 30.9022 -94.9972 223° Southwest 402 463 38,000  Level Houston Center
Mon 05:04:06 PM 30.8047 -95.1019 223° Southwest 398 458 38,000  Level Houston Center
Mon 05:05:08 PM 30.7225 -95.1900 223° Southwest 401 461 38,000  Level Houston Center
Mon 05:06:10 PM 30.6417 -95.2767 223° Southwest 397 457 38,000  Level Houston Center
Mon 05:07:12 PM 30.5597 -95.3633 222° Southwest 397 457 38,000  Level Houston Center
Mon 05:08:15 PM 30.4803 -95.4486 223° Southwest 398 458 38,000  Level Houston Center
Mon 05:09:17 PM 30.3997 -95.5339 222° Southwest 396 456 38,000  Level Houston Center
Mon 05:10:19 PM 30.3042 -95.6336 222° Southwest 389 448 38,000  Level Houston Center
Mon 05:11:21 PM 30.2244 -95.7172 222° Southwest 390 449 38,000  Level Houston Center
Mon 05:12:23 PM 30.1444 -95.8017 222° Southwest 392 451 38,000  Level Houston Center
Mon 05:13:25 PM 30.0642 -95.8869 223° Southwest 395 455 38,000  Level Houston Center
Mon 05:14:28 PM 29.9831 -95.9719 222° Southwest 396 456 38,000  Level Houston Center
Mon 05:15:29 PM 29.8864 -96.0697 221° Southwest 391 450 38,000  Level Houston Center
Mon 05:16:31 PM 29.8053 -96.1533 222° Southwest 391 450 38,000  Level Houston Center
Mon 05:17:33 PM 29.7847 -96.2622 258° West 364 419 38,000  Level Houston Center
Mon 05:18:35 PM 29.7936 -96.3742 275° West 355 409 38,000  Level Houston Center
Mon 05:19:37 PM 29.8008 -96.4839 274° West 351 404 38,000 -240 Level Houston Center
Mon 05:20:40 PM 29.8125 -96.6194 276° West 355 409 37,500 -1,440 Descending Houston Center
Mon 05:21:42 PM 29.8200 -96.7278 275° West 345 397 35,000 -2,565 Descending Houston Center
Mon 05:22:44 PM 29.8281 -96.8422 275° West 357 411 32,200 -2,468 Descending Houston Center
Mon 05:23:46 PM 29.8378 -96.9653 275° West 383 441 29,900 -2,323 Descending Houston Center
Mon 05:24:48 PM 29.8469 -97.0964 275° West 408 470 27,400 -2,565 Descending Houston Center
Mon 05:25:50 PM 29.8572 -97.2447 275° West 391 450 24,600 -2,419 Descending Houston Center
Mon 05:26:52 PM 29.8644 -97.3628 274° West 372 428 22,400 -2,187 Descending Houston Center
Mon 05:27:37 PM 29.8717 -97.4553 275° West 362 417 20,700 -2,032 Descending Houston Center
Mon 05:27:54 PM 29.8731 -97.4772 274° West 364 419 20,300 -2,000 Descending Houston Center
Mon 05:28:25 PM 29.8803 -97.5433 277° West 352 405 19,100 -2,226 Descending Houston Center
Mon 05:28:56 PM 29.8797 -97.6031 269° West 347 399 18,000 -2,066 Descending Houston Center
Mon 05:29:26 PM 29.8825 -97.6514 274° West 339 390 17,000 -2,032 Descending Houston Center
Mon 05:29:58 PM 29.8869 -97.7092 275° West 334 384 15,900 -2,262 Descending Houston Center
Mon 05:30:27 PM 29.8917 -97.7661 275° West 330 380 14,700 -2,226 Descending Houston Center
Mon 05:31:00 PM 29.8953 -97.8214 274° West 327 376 13,600 -1,855 Descending Houston Center
Mon 05:31:22 PM 29.8958 -97.8525 271° West 324 373 13,000 -1,048 Descending Houston Center
Mon 05:32:03 PM 29.8744 -97.9167 249° West 309 356 12,500 -900 Descending Houston Center
Mon 05:32:22 PM 29.8592 -97.9533 244° Southwest 317 365 12,100 -1,065 Descending Houston Center
Mon 05:33:05 PM 29.8322 -98.0156 243° Southwest 319 367 11,400 -984 Descending Houston Center
Mon 05:33:23 PM 29.8217 -98.0450 248° West 319 367 11,100 -968 Descending Houston Center
Mon 05:34:07 PM 29.7947 -98.1061 243° Southwest 315 362 10,400 -885 Descending Houston Center
Mon 05:34:24 PM 29.7819 -98.1342 242° Southwest 312 359 10,200 -1,161 Descending Houston Center
Mon 05:35:09 PM 29.7564 -98.1953 244° Southwest 291 335 9,200 -1,377 Descending Houston Center
Mon 05:35:25 PM 29.7494 -98.2128 245° Southwest 276 318 8,800 -1,452 Descending Houston Center
Mon 05:36:11 PM 29.7236 -98.2736 244° Southwest 275 316 7,700 -1,377 Descending Houston Center
Mon 05:36:26 PM 29.7167 -98.2914 246° West 269 310 7,400 -1,452 Descending Houston Center
Mon 05:37:13 PM 29.6886 -98.3550 243° Southwest 266 306 6,200 -991 Descending Houston Center
Mon 05:38:15 PM 29.6575 -98.4258 243° Southwest 251 289 5,600 -774 Descending Houston Center
Mon 05:39:17 PM 29.6711 -98.4956 283° West 236 272 4,600 -816 Descending Houston Center
Mon 05:40:20 PM 29.7069 -98.5572 304° West 235 270 3,900 -768 Descending Houston Center
Mon 05:41:22 PM 29.6875 -98.6019 243° Southwest 184 212 3,000 -435 Descending Houston Center
Mon 05:42:24 PM 29.6439 -98.6106 190° South 159 183 3,000 -97 Level Houston Center
Mon 05:43:26 PM 29.6103 -98.5722 135° Southeast 160 184 2,800 -484 Descending Houston Center
Mon 05:44:28 PM 29.5811 -98.5344 132° Southeast 159 183 2,000 -774 Descending Houston Center
Mon 05:45:30 PM 29.5547 -98.4997 131° Southeast 139 160 1,200 339 Descending Houston Center
Mon 05:46:32 PM 29.5344 -98.4711 129° Southeast 136 157 2,700 1,452 Climbing Houston Center
Mon 05:48:00 PM 29.5340 -98.4691 180° South  Level Estimated
Mon 05:55:00 PM 29.5333 -98.4667 16° North  Level FlightAware Approximate

Login

Don't have an account? Register now (free) for customized features, flight alerts, and more!